Hlavní strana
METAR-TAF:

METAR-TAF

Letiště :

Moroni, Komory

zeměpisná šířka: 11-32S, zeměpisná délka: 043-16E, výška: 29 m

Aktuální stav počasí

Zpráva byla vytvořena před 6 hodinami a 19 minutami, v 18:00 UTC
Bezvětří
Teplota 28°C
Vlhkost vzduchu 84%
Tlak 1009 hPa
Viditelnost 10 km a více
Skoro jasno ve výšce 2000 ft

METAR: FMCH 071800Z 00000KT 9999 FEW020 28/25 Q1009 NOSIG

Čas: 03:19 (00:19 UTC)

Předpověď počasí

Zpráva byla vytvořena před 7 hodinami a 19 minutami, v 17:00 UTC
Předpověď platná od 07 v 18 UTC do 08 v 24 UTC
Jihojihozápadní vítr 5 kt
Viditelnost 10 km a více
Skoro jasno ve výšce 2000 ft
Polojasno ve výšce 3000 ft
Pravděpodobnost 40% :
Dočasný
od 07 v 20 UTC do 08 v 14 UTC
Viditelnost: 4000 m
Skoro jasno ve výšce 2000 ft, Cumulonimbus.
Oblačno až skoro zataženo ve výšce 3000 ft
bouřka, déšť
Pravděpodobnost 30% :
Dočasný
mezi 20 a 01 UTC

TAF: FMCH 071700Z 0718/0824 20005KT 9999 FEW020 SCT030 PROB40 TEMPO 0720/0814 4000 TSRA FEW020CB BKN030 PROB30 TEMPO 20015KT

Stav a předpovědi počasí z více než 4 000 letišť (zprávy METAR a TAF).

Červené a žluté tečky na mapě představují dostupné meteorologické stanice.

Když kurzor umístíte na tečku, zobrazí se název stanice.

Pak kliknutím zobrazíte stav a předpověď počasí.

Chcete-li změnit mapu, kliknutím na zelené tlačítko se znaménkem +mapu přiblížíte, kliknutím na zelené tlačítko se znaménkem – mapu oddálíte a kliknutím na zelené šipky přejdete na sousední mapy.


METAR-TAF: